createdAt,value
2023-02-11T00:00:30.041Z,100589.34
2023-02-11T00:02:33.169Z,100588.66
2023-02-11T00:04:35.219Z,100584.94
2023-02-11T00:06:36.898Z,100585.09
2023-02-11T00:08:39.408Z,100579.84
2023-02-11T00:10:40.948Z,100590.91
2023-02-11T00:12:43.255Z,100593.59
2023-02-11T00:14:44.923Z,100593.69
2023-02-11T00:16:46.671Z,100590.31
2023-02-11T00:18:49.003Z,100585.81
2023-02-11T00:20:50.611Z,100584.25
2023-02-11T00:22:53.088Z,100584.38
2023-02-11T00:24:54.868Z,100581.69
2023-02-11T00:26:56.427Z,100589.88
2023-02-11T00:28:59.212Z,100602.34
2023-02-11T00:31:03.330Z,100602.44
2023-02-11T00:33:04.995Z,100611.38
2023-02-11T00:35:07.542Z,100611.78
2023-02-11T00:37:09.193Z,100610.78
2023-02-11T00:39:11.671Z,100610.06
2023-02-11T00:41:19.555Z,100609.09
2023-02-11T00:43:21.207Z,100610.94
2023-02-11T00:45:25.130Z,100598.47
2023-02-11T00:47:26.660Z,100603.72
2023-02-11T00:49:31.365Z,100609.22
2023-02-11T00:51:33.205Z,100598.78
2023-02-11T00:53:35.863Z,100598.47
2023-02-11T00:55:37.449Z,100596.94
2023-02-11T00:57:42.178Z,100593.41
2023-02-11T00:59:43.924Z,100588.06
2023-02-11T01:01:48.343Z,100587.91
2023-02-11T01:03:50.435Z,100575.34
2023-02-11T01:05:52.536Z,100575.34
2023-02-11T01:07:54.271Z,100575.34
2023-02-11T01:09:57.067Z,100582.38
2023-02-11T01:11:58.839Z,100587.03
2023-02-11T01:14:01.031Z,100585.22
2023-02-11T01:16:04.044Z,100583.50
2023-02-11T01:18:06.187Z,100584.25
2023-02-11T01:20:13.880Z,100581.56
2023-02-11T01:22:15.420Z,100571.66
2023-02-11T01:24:16.994Z,100568.13
2023-02-11T01:26:19.191Z,100565.31
2023-02-11T01:28:24.813Z,100556.13
2023-02-11T01:30:27.004Z,100539.88
2023-02-11T01:32:28.776Z,100539.75
2023-02-11T01:34:30.290Z,100547.53
2023-02-11T01:36:31.888Z,100545.66
2023-02-11T01:38:35.780Z,100539.31
2023-02-11T01:40:37.840Z,100558.09
2023-02-11T01:42:39.501Z,100558.09
2023-02-11T01:44:41.027Z,100552.19
2023-02-11T01:46:43.904Z,100544.69
2023-02-11T01:48:50.450Z,100538.34
2023-02-11T01:50:57.256Z,100531.81
2023-02-11T01:53:18.987Z,100522.75
2023-02-11T01:55:39.953Z,100525.16
2023-02-11T01:57:45.148Z,100529.56
2023-02-11T02:00:08.902Z,100527.16
2023-02-11T02:02:21.402Z,100525.31
2023-02-11T02:04:27.371Z,100524.31
2023-02-11T02:06:40.911Z,100519.97
2023-02-11T02:09:01.889Z,100515.00
2023-02-11T02:11:04.897Z,100520.91
2023-02-11T02:13:06.509Z,100516.41
2023-02-11T02:15:18.086Z,100510.19
2023-02-11T02:17:38.434Z,100517.97
2023-02-11T02:20:16.535Z,100499.31
2023-02-11T02:22:43.603Z,100501.84
2023-02-11T02:25:23.026Z,100494.06
2023-02-11T02:27:49.556Z,100498.47
2023-02-11T02:30:09.197Z,100502.69
2023-02-11T02:32:22.505Z,100505.22
2023-02-11T02:34:36.572Z,100492.81
2023-02-11T02:36:47.876Z,100492.66
2023-02-11T02:38:55.154Z,100480.94
2023-02-11T02:41:09.750Z,100476.41
2023-02-11T02:43:12.715Z,100481.47
2023-02-11T02:45:15.012Z,100482.31
2023-02-11T02:47:25.235Z,100479.50
2023-02-11T02:49:26.790Z,100474.97
2023-02-11T02:52:06.245Z,100483.75
2023-02-11T02:54:35.955Z,100475.81
2023-02-11T02:56:49.696Z,100478.38
2023-02-11T02:59:10.960Z,100482.72
2023-02-11T03:01:34.408Z,100479.94
2023-02-11T03:03:46.671Z,100481.47
2023-02-11T03:06:03.450Z,100481.19
2023-02-11T03:08:16.801Z,100468.44
2023-02-11T03:10:35.653Z,100464.75
2023-02-11T03:12:38.602Z,100464.34
2023-02-11T03:14:41.956Z,100472.09
2023-02-11T03:16:45.521Z,100468.41
2023-02-11T03:18:59.320Z,100470.13
2023-02-11T03:21:05.639Z,100467.00
2023-02-11T03:23:30.821Z,100468.53
2023-02-11T03:25:38.165Z,100468.38
2023-02-11T03:27:47.112Z,100459.19
2023-02-11T03:29:59.019Z,100450.66
2023-02-11T03:32:16.260Z,100450.66
2023-02-11T03:34:45.247Z,100452.78
2023-02-11T03:36:56.108Z,100460.69
2023-02-11T03:39:00.261Z,100464.91
2023-02-11T03:41:05.280Z,100471.00
2023-02-11T03:43:17.295Z,100480.91
2023-02-11T03:45:26.540Z,100474.09
2023-02-11T03:47:35.233Z,100472.78
2023-02-11T03:49:39.798Z,100463.75
2023-02-11T03:51:41.821Z,100453.53
2023-02-11T03:53:46.433Z,100444.00
2023-02-11T03:55:51.774Z,100443.31
2023-02-11T03:57:53.758Z,100452.78
2023-02-11T03:59:58.231Z,100451.09
2023-02-11T04:01:59.799Z,100443.56
2023-02-11T04:04:10.237Z,100447.25
2023-02-11T04:06:11.906Z,100457.69
2023-02-11T04:08:13.420Z,100450.34
2023-02-11T04:10:15.301Z,100449.72
2023-02-11T04:12:16.892Z,100439.66
2023-02-11T04:14:20.885Z,100431.16
2023-02-11T04:16:28.604Z,100429.69
2023-02-11T04:18:30.158Z,100414.69
2023-02-11T04:20:31.707Z,100414.84
2023-02-11T04:22:33.248Z,100411.00
2023-02-11T04:24:35.279Z,100405.19
2023-02-11T04:26:36.894Z,100391.59
2023-02-11T04:28:38.467Z,100373.44
2023-02-11T04:30:41.242Z,100373.97
2023-02-11T04:32:42.933Z,100362.91
2023-02-11T04:34:44.643Z,100378.72
2023-02-11T04:36:49.204Z,100389.19
2023-02-11T04:38:50.789Z,100387.19
2023-02-11T04:40:52.442Z,100399.66
2023-02-11T04:42:54.142Z,100399.31
2023-02-11T04:44:58.080Z,100397.03
2023-02-11T04:46:59.774Z,100400.25
2023-02-11T04:49:01.328Z,100399.78
2023-02-11T04:51:03.194Z,100408.72
2023-02-11T04:53:04.696Z,100413.63
2023-02-11T04:55:06.793Z,100422.41
2023-02-11T04:57:08.408Z,100423.78
2023-02-11T04:59:09.987Z,100427.72
2023-02-11T05:01:15.107Z,100407.41
2023-02-11T05:03:17.333Z,100403.22
2023-02-11T05:05:19.018Z,100408.78
2023-02-11T05:07:20.674Z,100422.06
2023-02-11T05:09:22.818Z,100403.75
2023-02-11T05:11:26.062Z,100388.97
2023-02-11T05:13:29.134Z,100387.28
2023-02-11T05:15:37.019Z,100395.19
2023-02-11T05:17:38.637Z,100388.97
2023-02-11T05:19:41.688Z,100381.13
2023-02-11T05:21:56.642Z,100373.03
2023-02-11T05:24:06.634Z,100341.56
2023-02-11T05:26:08.906Z,100355.41
2023-02-11T05:28:10.447Z,100353.88
2023-02-11T05:30:12.314Z,100342.81
2023-02-11T05:32:14.707Z,100347.03
2023-02-11T05:34:16.241Z,100347.69
2023-02-11T05:36:17.994Z,100350.09
2023-02-11T05:38:19.762Z,100355.16
2023-02-11T05:40:21.415Z,100346.75
2023-02-11T05:42:23.037Z,100365.31
2023-02-11T05:44:25.703Z,100370.22
2023-02-11T05:46:27.403Z,100376.28
2023-02-11T05:48:28.932Z,100378.81
2023-02-11T05:50:33.673Z,100381.03
2023-02-11T05:52:35.169Z,100378.16
2023-02-11T05:54:36.926Z,100374.13
2023-02-11T05:56:38.605Z,100370.13
2023-02-11T05:58:40.356Z,100362.72
2023-02-11T06:00:42.111Z,100364.41
2023-02-11T06:02:46.678Z,100369.81
2023-02-11T06:04:48.201Z,100377.91
2023-02-11T06:06:49.945Z,100372.16
2023-02-11T06:08:51.541Z,100377.41
2023-02-11T06:10:53.226Z,100374.53
2023-02-11T06:12:54.889Z,100369.13
2023-02-11T06:14:56.433Z,100357.34
2023-02-11T06:16:58.100Z,100347.56
2023-02-11T06:19:08.659Z,100345.91
2023-02-11T06:21:16.664Z,100348.59
2023-02-11T06:23:18.387Z,100342.34
2023-02-11T06:25:20.052Z,100334.25
2023-02-11T06:27:21.733Z,100336.28
2023-02-11T06:29:23.416Z,100351.63
2023-02-11T06:31:25.047Z,100348.06
2023-02-11T06:33:26.613Z,100345.38
2023-02-11T06:35:28.492Z,100351.75
2023-02-11T06:37:30.254Z,100366.09
2023-02-11T06:39:32.232Z,100367.44
2023-02-11T06:41:36.050Z,100368.28
2023-02-11T06:43:37.617Z,100384.59
2023-02-11T06:45:41.165Z,100388.31
2023-02-11T06:47:43.018Z,100374.13
2023-02-11T06:49:51.788Z,100373.31
2023-02-11T06:51:54.158Z,100385.25
2023-02-11T06:53:55.826Z,100387.97
2023-02-11T06:56:02.620Z,100390.13
2023-02-11T06:58:04.323Z,100399.06
2023-02-11T07:00:06.479Z,100392.13
2023-02-11T07:02:10.153Z,100398.00
2023-02-11T07:04:11.706Z,100409.78
2023-02-11T07:06:16.589Z,100404.41
2023-02-11T07:08:18.545Z,100391.41
2023-02-11T07:10:20.426Z,100387.84
2023-02-11T07:12:22.245Z,100390.72
2023-02-11T07:14:34.310Z,100374.69
2023-02-11T07:16:36.513Z,100387.00
2023-02-11T07:18:38.449Z,100380.09
2023-02-11T07:20:39.974Z,100369.16
2023-02-11T07:22:41.624Z,100363.44
2023-02-11T07:24:43.197Z,100351.84
2023-02-11T07:26:44.932Z,100368.69
2023-02-11T07:28:46.955Z,100380.44
2023-02-11T07:30:48.643Z,100396.13
2023-02-11T07:32:50.477Z,100396.13
2023-02-11T07:34:52.158Z,100396.00
2023-02-11T07:36:56.179Z,100411.00
2023-02-11T07:38:58.631Z,100397.22
2023-02-11T07:41:05.159Z,100397.56
2023-02-11T07:43:06.874Z,100402.47
2023-02-11T07:45:08.804Z,100405.84
2023-02-11T07:47:13.842Z,100420.69
2023-02-11T07:49:16.537Z,100425.44
2023-02-11T07:51:26.964Z,100427.66
2023-02-11T07:53:28.769Z,100439.13
2023-02-11T07:55:30.407Z,100428.00
2023-02-11T07:57:37.570Z,100433.78
2023-02-11T07:59:39.091Z,100436.00
2023-02-11T08:01:41.952Z,100427.56
2023-02-11T08:03:43.710Z,100429.81
2023-02-11T08:05:45.387Z,100423.38
2023-02-11T08:07:47.258Z,100419.50
2023-02-11T08:09:48.893Z,100420.19
2023-02-11T08:11:50.548Z,100421.72
2023-02-11T08:13:52.900Z,100416.84
2023-02-11T08:15:57.822Z,100412.78
2023-02-11T08:17:59.547Z,100415.03
2023-02-11T08:20:04.781Z,100415.53
2023-02-11T08:22:06.348Z,100414.03
2023-02-11T08:24:09.080Z,100418.91
2023-02-11T08:26:21.890Z,100413.88
2023-02-11T08:28:23.867Z,100414.06
2023-02-11T08:30:27.472Z,100402.75
2023-02-11T08:32:29.107Z,100402.09
2023-02-11T08:34:31.118Z,100401.44
2023-02-11T08:36:36.667Z,100411.72
2023-02-11T08:38:39.267Z,100402.78
2023-02-11T08:40:42.096Z,100401.78
2023-02-11T08:42:43.655Z,100404.47
2023-02-11T08:44:47.533Z,100393.66
2023-02-11T08:46:50.708Z,100393.00
2023-02-11T08:48:54.966Z,100394.66
2023-02-11T08:50:57.071Z,100397.34
2023-02-11T08:53:01.224Z,100397.34
2023-02-11T08:55:02.984Z,100389.22
2023-02-11T08:57:05.509Z,100393.44
2023-02-11T08:59:09.239Z,100390.69
2023-02-11T09:01:22.322Z,100388.81
2023-02-11T09:03:24.536Z,100389.63
2023-02-11T09:05:27.570Z,100395.84
2023-02-11T09:07:29.151Z,100400.25
2023-02-11T09:09:30.750Z,100397.47
2023-02-11T09:11:35.834Z,100401.84
2023-02-11T09:13:37.837Z,100397.41
2023-02-11T09:15:39.568Z,100399.22
2023-02-11T09:17:41.088Z,100401.03
2023-02-11T09:19:42.778Z,100391.38
2023-02-11T09:21:44.461Z,100401.66
2023-02-11T09:23:47.963Z,100398.41
2023-02-11T09:25:49.749Z,100394.34
2023-02-11T09:27:52.323Z,100403.63
2023-02-11T09:29:54.060Z,100404.94
2023-02-11T09:31:55.710Z,100394.41
2023-02-11T09:34:02.005Z,100402.19
2023-02-11T09:36:05.994Z,100398.06
2023-02-11T09:38:07.612Z,100396.00
2023-02-11T09:40:10.138Z,100404.44
2023-02-11T09:42:41.055Z,100400.72
2023-02-11T09:44:46.226Z,100408.97
2023-02-11T09:46:54.838Z,100400.66
2023-02-11T09:48:56.761Z,100399.25
2023-02-11T09:51:03.389Z,100401.41
2023-02-11T09:53:05.148Z,100402.56
2023-02-11T09:55:18.809Z,100398.47
2023-02-11T09:57:28.553Z,100397.72
2023-02-11T09:59:30.761Z,100406.00
2023-02-11T10:01:50.591Z,100402.53
2023-02-11T10:04:13.787Z,100411.59
2023-02-11T10:06:55.404Z,100413.38
2023-02-11T10:09:08.587Z,100411.81
2023-02-11T10:11:54.895Z,100417.38
2023-02-11T10:14:05.586Z,100423.06
2023-02-11T10:16:24.347Z,100436.72
2023-02-11T10:18:53.830Z,100439.94
2023-02-11T10:21:12.502Z,100435.44
2023-02-11T10:23:22.412Z,100434.03
2023-02-11T10:25:34.849Z,100432.63
2023-02-11T10:27:36.308Z,100426.63
2023-02-11T10:29:47.042Z,100439.00
2023-02-11T10:31:53.380Z,100432.16
2023-02-11T10:34:05.172Z,100438.06
2023-02-11T10:36:14.377Z,100435.16
2023-02-11T10:38:18.901Z,100422.25
2023-02-11T10:40:25.926Z,100418.31
2023-02-11T10:42:29.696Z,100416.03
2023-02-11T10:44:41.592Z,100413.16
2023-02-11T10:46:43.500Z,100418.84
2023-02-11T10:48:58.765Z,100431.22
2023-02-11T10:51:14.605Z,100438.31
2023-02-11T10:53:20.672Z,100426.22
2023-02-11T10:55:27.852Z,100423.13
2023-02-11T10:57:38.843Z,100415.63
2023-02-11T10:59:42.619Z,100417.97
2023-02-11T11:01:53.380Z,100414.41
2023-02-11T11:03:58.815Z,100422.19
2023-02-11T11:06:09.204Z,100430.13
2023-02-11T11:08:14.316Z,100419.78
2023-02-11T11:10:34.430Z,100412.28
2023-02-11T11:12:42.074Z,100409.19
2023-02-11T11:14:54.850Z,100416.09
2023-02-11T11:16:56.590Z,100416.38
2023-02-11T11:19:07.727Z,100417.22
2023-02-11T11:21:27.720Z,100420.38
2023-02-11T11:23:30.895Z,100419.16
2023-02-11T11:25:32.435Z,100421.31
2023-02-11T11:27:34.189Z,100423.63
2023-02-11T11:29:46.021Z,100416.31
2023-02-11T11:32:03.137Z,100413.22
2023-02-11T11:34:22.160Z,100412.84
2023-02-11T11:36:34.225Z,100417.91
2023-02-11T11:38:42.806Z,100424.63
2023-02-11T11:40:44.558Z,100421.53
2023-02-11T11:42:46.166Z,100418.44
2023-02-11T11:45:19.635Z,100419.72
2023-02-11T11:47:29.612Z,100427.50
2023-02-11T11:49:38.782Z,100424.38
2023-02-11T11:51:44.923Z,100425.66
2023-02-11T11:53:57.131Z,100417.13
2023-02-11T11:56:11.427Z,100413.34
2023-02-11T11:58:22.640Z,100406.69
2023-02-11T12:00:33.711Z,100409.88
2023-02-11T12:03:17.163Z,100408.63
2023-02-11T12:05:32.291Z,100414.53
2023-02-11T12:08:26.683Z,100406.00
2023-02-11T12:11:08.778Z,100401.81
2023-02-11T12:13:23.304Z,100395.16
2023-02-11T12:15:43.513Z,100404.81
2023-02-11T12:17:56.501Z,100403.56
2023-02-11T12:20:26.349Z,100391.66
2023-02-11T12:23:15.064Z,100388.72
2023-02-11T12:25:30.908Z,100391.22
2023-02-11T12:27:57.230Z,100391.06
2023-02-11T12:30:20.966Z,100386.25
2023-02-11T12:32:47.116Z,100386.03
2023-02-11T12:34:51.542Z,100390.66
2023-02-11T12:37:02.563Z,100386.72
2023-02-11T12:39:17.515Z,100384.63
2023-02-11T12:42:08.683Z,100381.91
2023-02-11T12:44:21.838Z,100375.41
2023-02-11T12:46:29.166Z,100375.84
2023-02-11T12:48:43.372Z,100373.13
2023-02-11T12:51:14.597Z,100367.47
2023-02-11T12:53:28.009Z,100372.75
2023-02-11T12:55:42.576Z,100371.69
2023-02-11T12:57:46.495Z,100368.56
2023-02-11T13:00:04.972Z,100365.66
2023-02-11T13:02:51.236Z,100362.09
2023-02-11T13:04:57.324Z,100362.53
2023-02-11T13:07:05.523Z,100361.50
2023-02-11T13:09:18.817Z,100344.13
2023-02-11T13:11:24.436Z,100338.25
2023-02-11T13:13:31.819Z,100332.63
2023-02-11T13:15:33.574Z,100320.50
2023-02-11T13:17:43.931Z,100324.69
2023-02-11T13:19:53.231Z,100322.41
2023-02-11T13:22:21.133Z,100325.56
2023-02-11T13:24:35.937Z,100326.84
2023-02-11T13:26:49.955Z,100339.19
2023-02-11T13:29:13.032Z,100338.63
2023-02-11T13:31:16.686Z,100333.59
2023-02-11T13:33:30.944Z,100341.16
2023-02-11T13:35:33.518Z,100348.28
2023-02-11T13:37:38.648Z,100337.19
2023-02-11T13:39:40.397Z,100338.47
2023-02-11T13:41:42.359Z,100338.25
2023-02-11T13:43:44.402Z,100333.88
2023-02-11T13:45:51.655Z,100335.53
2023-02-11T13:48:03.958Z,100325.69
2023-02-11T13:50:08.208Z,100326.50
2023-02-11T13:52:39.847Z,100325.69
2023-02-11T13:54:46.925Z,100325.47
2023-02-11T13:57:20.048Z,100325.47
2023-02-11T13:59:24.841Z,100338.25
2023-02-11T14:02:44.057Z,100332.81
2023-02-11T14:05:22.657Z,100335.53
2023-02-11T14:07:51.901Z,100339.09
2023-02-11T14:09:57.045Z,100334.50
2023-02-11T14:12:33.038Z,100347.06
2023-02-11T14:14:59.258Z,100343.75
2023-02-11T14:17:09.505Z,100354.66
2023-02-11T14:19:11.225Z,100351.50
2023-02-11T14:21:23.178Z,100350.47
2023-02-11T14:23:28.455Z,100347.34
2023-02-11T14:25:30.237Z,100348.19
2023-02-11T14:27:42.216Z,100346.50
2023-02-11T14:29:58.754Z,100344.38
2023-02-11T14:32:06.088Z,100344.59
2023-02-11T14:34:45.035Z,100343.75
2023-02-11T14:37:11.343Z,100355.69
2023-02-11T14:39:18.791Z,100355.06
2023-02-11T14:41:25.750Z,100357.78
2023-02-11T14:43:40.537Z,100350.47
2023-02-11T14:45:50.781Z,100352.16
2023-02-11T14:48:03.582Z,100352.16
2023-02-11T14:50:08.396Z,100345.84
2023-02-11T14:52:24.388Z,100355.28
2023-02-11T14:54:28.089Z,100354.22
2023-02-11T14:56:36.795Z,100359.88
2023-02-11T14:58:47.337Z,100367.22
2023-02-11T15:00:57.116Z,100365.13
2023-02-11T15:02:58.747Z,100363.25
2023-02-11T15:05:17.454Z,100363.25
2023-02-11T15:07:19.133Z,100369.75
2023-02-11T15:09:42.432Z,100362.59
2023-02-11T15:11:51.434Z,100370.78
2023-02-11T15:13:55.434Z,100364.31
2023-02-11T15:16:12.205Z,100368.06
2023-02-11T15:18:26.845Z,100369.31
2023-02-11T15:20:31.934Z,100367.59
2023-02-11T15:22:36.844Z,100364.25
2023-02-11T15:24:40.091Z,100372.44
2023-02-11T15:26:41.744Z,100362.78
2023-02-11T15:28:52.237Z,100369.28
2023-02-11T15:31:03.327Z,100370.31
2023-02-11T15:33:06.911Z,100369.06
2023-02-11T15:35:11.804Z,100369.28
2023-02-11T15:37:35.127Z,100359.41
2023-02-11T15:39:41.998Z,100360.44
2023-02-11T15:41:44.466Z,100370.31
2023-02-11T15:43:54.243Z,100375.13
2023-02-11T15:46:01.629Z,100366.31
2023-02-11T15:48:21.736Z,100363.78
2023-02-11T15:50:30.236Z,100370.47
2023-02-11T15:52:32.231Z,100373.41
2023-02-11T15:54:34.133Z,100377.16
2023-02-11T15:56:43.262Z,100376.31
2023-02-11T15:58:50.432Z,100377.38
2023-02-11T16:00:59.865Z,100376.94
2023-02-11T16:03:01.531Z,100379.03
2023-02-11T16:05:09.660Z,100383.63
2023-02-11T16:07:40.399Z,100398.69
2023-02-11T16:09:43.005Z,100377.94
2023-02-11T16:11:47.366Z,100377.94
2023-02-11T16:13:49.246Z,100376.91
2023-02-11T16:15:54.664Z,100393.84
2023-02-11T16:17:56.807Z,100389.22
2023-02-11T16:20:01.625Z,100382.13
2023-02-11T16:22:10.384Z,100382.50
2023-02-11T16:24:29.234Z,100383.53
2023-02-11T16:26:57.750Z,100399.25
2023-02-11T16:31:45.709Z,100401.72
2023-02-11T16:34:35.742Z,100394.63
2023-02-11T16:37:13.045Z,100391.03
2023-02-11T16:40:03.150Z,100395.41
2023-02-11T16:43:26.254Z,100397.09
2023-02-11T16:45:31.165Z,100403.97
2023-02-11T16:47:34.464Z,100404.16
2023-02-11T16:49:38.305Z,100404.34
2023-02-11T16:51:41.412Z,100403.53
2023-02-11T16:53:43.174Z,100416.47
2023-02-11T16:55:44.839Z,100409.38
2023-02-11T16:57:46.542Z,100416.69
2023-02-11T16:59:48.886Z,100416.03
2023-02-11T17:01:52.980Z,100418.94
2023-02-11T17:03:54.721Z,100422.91
2023-02-11T17:05:56.273Z,100428.34
2023-02-11T17:07:58.262Z,100438.59
2023-02-11T17:10:00.434Z,100431.47
2023-02-11T17:12:02.181Z,100425.19
2023-02-11T17:14:03.788Z,100426.44
2023-02-11T17:16:05.507Z,100428.50
2023-02-11T17:18:06.962Z,100430.19
2023-02-11T17:20:12.288Z,100444.84
2023-02-11T17:22:13.903Z,100442.13
2023-02-11T17:24:16.797Z,100438.72
2023-02-11T17:26:21.375Z,100436.22
2023-02-11T17:28:23.136Z,100437.25
2023-02-11T17:30:27.847Z,100440.38
2023-02-11T17:32:29.550Z,100441.59
2023-02-11T17:34:32.358Z,100439.91
2023-02-11T17:36:34.141Z,100441.78
2023-02-11T17:38:37.252Z,100434.47
2023-02-11T17:40:38.864Z,100433.84
2023-02-11T17:42:40.501Z,100426.69
2023-02-11T17:44:43.929Z,100427.75
2023-02-11T17:46:45.748Z,100439.88
2023-02-11T17:48:47.353Z,100440.03
2023-02-11T17:50:49.230Z,100441.09
2023-02-11T17:52:50.846Z,100435.84
2023-02-11T17:54:52.617Z,100436.84
2023-02-11T17:56:57.766Z,100436.69
2023-02-11T17:59:02.268Z,100429.94
2023-02-11T18:01:04.215Z,100440.16
2023-02-11T18:03:05.777Z,100446.47
2023-02-11T18:05:10.731Z,100441.41
2023-02-11T18:07:12.424Z,100446.00
2023-02-11T18:09:14.092Z,100441.59
2023-02-11T18:11:16.464Z,100440.56
2023-02-11T18:13:18.319Z,100437.81
2023-02-11T18:15:20.103Z,100445.19
2023-02-11T18:17:25.148Z,100438.88
2023-02-11T18:19:30.550Z,100450.63
2023-02-11T18:21:33.411Z,100449.13
2023-02-11T18:23:35.417Z,100446.78
2023-02-11T18:25:37.669Z,100448.00
2023-02-11T18:27:39.497Z,100442.75
2023-02-11T18:29:44.051Z,100451.13
2023-02-11T18:31:45.727Z,100451.31
2023-02-11T18:33:48.005Z,100449.41
2023-02-11T18:35:52.840Z,100439.78
2023-02-11T18:37:54.469Z,100444.38
2023-02-11T18:39:56.153Z,100450.22
2023-02-11T18:41:58.994Z,100448.50
2023-02-11T18:44:02.875Z,100463.16
2023-02-11T18:46:12.738Z,100459.97
2023-02-11T18:48:21.917Z,100460.19
2023-02-11T18:50:23.707Z,100456.59
2023-02-11T18:52:25.343Z,100463.06
2023-02-11T18:54:27.116Z,100466.63
2023-02-11T18:56:28.924Z,100464.75
2023-02-11T18:58:30.518Z,100470.38
2023-02-11T19:00:32.366Z,100475.38
2023-02-11T19:02:34.054Z,100475.38
2023-02-11T19:04:38.529Z,100472.00
2023-02-11T19:06:40.370Z,100474.72
2023-02-11T19:08:42.361Z,100480.34
2023-02-11T19:10:46.772Z,100474.06
2023-02-11T19:12:48.590Z,100479.47
2023-02-11T19:14:50.076Z,100482.41
2023-02-11T19:16:54.802Z,100478.66
2023-02-11T19:18:56.815Z,100473.41
2023-02-11T19:21:01.856Z,100479.03
2023-02-11T19:23:06.452Z,100480.91
2023-02-11T19:25:08.247Z,100490.94
2023-02-11T19:27:14.355Z,100493.84
2023-02-11T19:29:16.832Z,100488.22
2023-02-11T19:31:18.739Z,100501.63
2023-02-11T19:33:20.462Z,100490.75
2023-02-11T19:35:23.239Z,100491.78
2023-02-11T19:37:24.976Z,100493.84
2023-02-11T19:39:27.042Z,100498.66
2023-02-11T19:41:29.638Z,100506.59
2023-02-11T19:43:31.303Z,100501.53
2023-02-11T19:45:33.092Z,100506.97
2023-02-11T19:47:35.103Z,100514.28
2023-02-11T19:49:36.833Z,100518.22
2023-02-11T19:51:39.680Z,100516.56
2023-02-11T19:53:42.346Z,100517.78
2023-02-11T19:55:44.291Z,100512.34
2023-02-11T19:57:45.856Z,100519.63
2023-02-11T19:59:47.411Z,100524.44
2023-02-11T20:01:49.255Z,100517.28
2023-02-11T20:03:55.310Z,100514.56
2023-02-11T20:05:57.082Z,100516.44
2023-02-11T20:07:58.801Z,100514.78
2023-02-11T20:10:00.561Z,100514.78
2023-02-11T20:12:02.143Z,100505.41
2023-02-11T20:14:05.118Z,100513.56
2023-02-11T20:16:13.237Z,100502.22
2023-02-11T20:18:14.915Z,100513.06
2023-02-11T20:20:18.567Z,100509.34
2023-02-11T20:22:20.185Z,100503.91
2023-02-11T20:24:23.107Z,100511.00
2023-02-11T20:26:31.016Z,100506.78
2023-02-11T20:28:32.991Z,100516.66
2023-02-11T20:30:34.648Z,100502.03
2023-02-11T20:32:38.587Z,100512.91
2023-02-11T20:34:40.382Z,100514.78
2023-02-11T20:36:42.089Z,100530.22
2023-02-11T20:38:44.712Z,100530.03
2023-02-11T20:40:47.659Z,100538.19
2023-02-11T20:42:49.900Z,100537.16
2023-02-11T20:44:51.678Z,100529.38
2023-02-11T20:46:54.338Z,100532.94
2023-02-11T20:48:57.551Z,100544.66
2023-02-11T20:51:06.716Z,100549.44
2023-02-11T20:53:10.254Z,100543.63
2023-02-11T20:55:14.646Z,100553.66
2023-02-11T20:57:17.486Z,100553.47
2023-02-11T20:59:21.207Z,100539.88
2023-02-11T21:01:27.501Z,100541.59
2023-02-11T21:03:29.371Z,100544.09
2023-02-11T21:05:31.274Z,100537.81
2023-02-11T21:07:33.094Z,100550.94
2023-02-11T21:09:34.754Z,100548.69
2023-02-11T21:11:39.583Z,100551.41
2023-02-11T21:13:42.842Z,100555.63
2023-02-11T21:15:44.459Z,100556.66
2023-02-11T21:17:46.331Z,100546.81
2023-02-11T21:19:47.878Z,100554.97
2023-02-11T21:21:49.799Z,100548.31
2023-02-11T21:23:51.269Z,100540.34
2023-02-11T21:25:54.114Z,100544.94
2023-02-11T21:27:56.058Z,100550.00
2023-02-11T21:30:00.229Z,100557.97
2023-02-11T21:32:01.971Z,100572.56
2023-02-11T21:34:04.124Z,100578.22
2023-02-11T21:36:07.934Z,100567.97
2023-02-11T21:38:09.932Z,100560.88
2023-02-11T21:40:11.787Z,100567.13
2023-02-11T21:42:13.375Z,100560.03
2023-02-11T21:44:14.944Z,100565.47
2023-02-11T21:46:19.064Z,100566.31
2023-02-11T21:48:21.033Z,100573.41
2023-02-11T21:50:23.897Z,100570.91
2023-02-11T21:52:25.655Z,100581.78
2023-02-11T21:54:31.951Z,100571.56
2023-02-11T21:56:36.734Z,100567.97
2023-02-11T21:58:38.893Z,100563.19
2023-02-11T22:00:40.555Z,100558.81
2023-02-11T22:02:42.456Z,100565.09
2023-02-11T22:04:44.133Z,100564.41
2023-02-11T22:06:48.116Z,100564.41
2023-02-11T22:08:50.263Z,100567.34
2023-02-11T22:10:52.142Z,100561.91
2023-02-11T22:12:53.829Z,100560.03
2023-02-11T22:14:55.826Z,100564.63
2023-02-11T22:16:57.495Z,100565.47
2023-02-11T22:18:59.658Z,100566.69
2023-02-11T22:21:10.511Z,100570.25
2023-02-11T22:23:12.153Z,100566.50
2023-02-11T22:25:13.812Z,100572.13
2023-02-11T22:27:19.880Z,100581.50
2023-02-11T22:29:21.774Z,100570.63
2023-02-11T22:31:29.810Z,100567.06
2023-02-11T22:33:31.548Z,100567.72
2023-02-11T22:35:34.618Z,100572.13
2023-02-11T22:37:42.294Z,100578.28
2023-02-11T22:39:43.840Z,100580.16
2023-02-11T22:41:46.858Z,100581.38
2023-02-11T22:43:48.532Z,100577.00
2023-02-11T22:45:50.791Z,100584.94
2023-02-11T22:47:54.189Z,100578.88
2023-02-11T22:49:55.872Z,100579.72
2023-02-11T22:51:57.486Z,100580.72
2023-02-11T22:54:04.956Z,100582.78
2023-02-11T22:56:09.865Z,100586.53
2023-02-11T22:58:11.518Z,100591.97
2023-02-11T23:00:13.818Z,100581.78
2023-02-11T23:02:15.647Z,100579.44
2023-02-11T23:04:19.453Z,100583.81
2023-02-11T23:06:21.245Z,100588.44
2023-02-11T23:08:23.100Z,100590.44
2023-02-11T23:10:24.720Z,100599.63
2023-02-11T23:12:26.976Z,100594.75
2023-02-11T23:14:28.658Z,100594.94
2023-02-11T23:16:33.422Z,100589.69
2023-02-11T23:18:37.127Z,100588.66
2023-02-11T23:20:42.258Z,100590.91
2023-02-11T23:22:44.036Z,100587.34
2023-02-11T23:24:45.858Z,100582.28
2023-02-11T23:26:47.425Z,100588.75
2023-02-11T23:28:49.540Z,100585.34
2023-02-11T23:30:54.756Z,100593.91
2023-02-11T23:32:56.335Z,100593.03
2023-02-11T23:34:58.281Z,100596.63
2023-02-11T23:36:59.848Z,100592.41
2023-02-11T23:39:01.554Z,100589.84
2023-02-11T23:41:06.247Z,100594.44
2023-02-11T23:43:07.790Z,100591.06
2023-02-11T23:45:09.873Z,100596.13
2023-02-11T23:47:11.523Z,100596.31
2023-02-11T23:49:15.592Z,100603.63
2023-02-11T23:51:17.462Z,100599.41
2023-02-11T23:53:19.101Z,100601.06
2023-02-11T23:55:20.723Z,100591.91
2023-02-11T23:57:22.211Z,100599.03
2023-02-11T23:59:23.802Z,100596.03
